Time;durP1;ratioP1;P1;durP2;ratioP2;P2;SDS_P1;SDS_P2;PMS_P1;PMS_P2;Temp;Humidity;BMP_temperature;BMP_pressure;BME280_temperature;BME280_humidity;BME280_pressure;Samples;Min_cycle;Max_cycle;Signal;HPM_P1;HPM_P2
2022/03/20 00:01:02;;;;;;;0.00;0.00;;;;;;;11.99;47.78;102318.88;7359952;19;20564;-63
2022/03/20 00:03:28;;;;;;;0.00;0.00;;;;;;;11.95;47.96;102315.38;7354066;19;20030;-64
2022/03/20 00:05:59;;;;;;;0.00;0.00;;;;;;;11.83;48.29;102310.19;5444405;19;10020813;-64
2022/03/20 00:08:25;;;;;;;0.00;0.00;;;;;;;11.88;47.63;102319.75;3239341;19;10001986;-63
2022/03/20 00:10:54;;;;;;;0.00;0.00;;;;;;;11.85;48.67;102313.66;7347927;19;20006;-63
2022/03/20 00:13:21;;;;;;;0.00;0.00;;;;;;;11.80;48.99;102315.38;7346399;19;20006;-63
2022/03/20 00:15:49;;;;;;;0.00;0.00;;;;;;;11.78;49.33;102314.53;7350061;19;20013;-62
2022/03/20 00:18:16;;;;;;;0.00;0.00;;;;;;;11.73;49.58;102311.03;7348276;19;20014;-63
2022/03/20 00:20:46;;;;;;;0.00;0.00;;;;;;;11.69;49.56;102316.25;7334991;19;20189;-63
2022/03/20 00:23:12;;;;;;;0.00;0.00;;;;;;;11.64;49.87;102307.56;7348953;19;20013;-63
2022/03/20 00:25:42;;;;;;;0.00;0.00;;;;;;;11.61;49.80;102302.34;7346147;19;20597;-62
2022/03/20 00:28:09;;;;;;;0.00;0.00;;;;;;;11.58;50.39;102299.72;7351379;19;20023;-63
2022/03/20 00:30:35;;;;;;;0.00;0.00;;;;;;;11.53;50.39;102295.38;7354109;19;20026;-62
2022/03/20 00:33:01;;;;;;;0.00;0.00;;;;;;;11.51;50.50;102292.75;7354249;19;20032;-62
2022/03/20 00:35:27;;;;;;;0.05;0.05;;;;;;;11.49;50.70;102296.22;7351317;19;20035;-63
2022/03/20 00:37:53;;;;;;;0.00;0.00;;;;;;;11.44;50.61;102288.38;7347874;19;20006;-63
2022/03/20 00:40:18;;;;;;;0.00;0.00;;;;;;;11.43;49.72;102291.88;7345602;19;20021;-63
2022/03/20 00:42:44;;;;;;;0.00;0.00;;;;;;;11.38;50.81;102284.03;7347102;19;20010;-63
2022/03/20 00:45:09;;;;;;;0.00;0.00;;;;;;;11.35;50.38;102283.16;7351557;19;20010;-63
2022/03/20 00:47:35;;;;;;;0.00;0.00;;;;;;;11.31;50.78;102276.22;7354628;19;20029;-63
2022/03/20 00:50:01;;;;;;;0.10;0.10;;;;;;;11.26;50.99;102280.56;7358299;19;20009;-63
2022/03/20 00:52:26;;;;;;;0.00;0.00;;;;;;;11.26;50.62;102283.19;7355302;19;20014;-63
2022/03/20 00:54:51;;;;;;;0.00;0.00;;;;;;;11.24;50.47;102290.16;7349013;19;20014;-63
2022/03/20 00:57:17;;;;;;;0.05;0.05;;;;;;;11.22;50.84;102291.91;7339965;19;20026;-63
2022/03/20 00:59:42;;;;;;;0.00;0.00;;;;;;;11.16;50.32;102277.94;7353373;19;20010;-63
2022/03/20 01:02:08;;;;;;;0.00;0.00;;;;;;;11.18;50.57;102294.50;7349635;19;20128;-63
2022/03/20 01:04:35;;;;;;;0.00;0.00;;;;;;;11.13;49.75;102277.94;7211254;19;2927816;-63
2022/03/20 01:07:02;;;;;;;0.00;0.00;;;;;;;11.13;50.07;102285.78;7355032;19;20015;-62
2022/03/20 01:09:30;;;;;;;0.00;0.00;;;;;;;11.12;49.93;102275.34;7349400;19;20014;-62
2022/03/20 01:11:57;;;;;;;0.00;0.00;;;;;;;11.08;49.65;102282.28;7351135;19;20010;-63
2022/03/20 01:14:25;;;;;;;0.00;0.00;;;;;;;11.07;49.70;102258.78;7322724;19;20595;-63
2022/03/20 01:16:51;;;;;;;0.00;0.00;;;;;;;11.04;49.67;102257.00;7350876;19;20030;-64
2022/03/20 01:19:16;;;;;;;0.00;0.00;;;;;;;11.03;48.84;102260.50;7356169;19;20014;-65
2022/03/20 01:21:42;;;;;;;0.00;0.00;;;;;;;11.01;48.81;102257.03;7361923;19;20074;-65
2022/03/20 01:24:08;;;;;;;0.00;0.00;;;;;;;11.00;48.39;102246.56;7364407;19;20010;-64
2022/03/20 01:26:36;;;;;;;0.00;0.00;;;;;;;10.99;48.30;102248.31;7361623;19;20011;-63
2022/03/20 01:29:02;;;;;;;0.00;0.00;;;;;;;10.96;48.13;102237.88;7355022;19;20006;-64
2022/03/20 01:31:28;;;;;;;0.00;0.00;;;;;;;10.95;48.02;102241.34;7349305;19;20021;-64
2022/03/20 01:33:54;;;;;;;0.00;0.00;;;;;;;10.92;48.06;102246.56;7357121;19;20006;-64
2022/03/20 01:36:21;;;;;;;0.10;0.10;;;;;;;10.91;47.41;102234.38;7356323;19;20362;-64
2022/03/20 01:38:46;;;;;;;0.00;0.00;;;;;;;10.85;47.93;102232.63;7358426;19;20031;-64
2022/03/20 01:41:12;;;;;;;0.00;0.00;;;;;;;10.88;47.72;102234.38;7352358;19;20010;-64
2022/03/20 01:43:38;;;;;;;0.10;0.10;;;;;;;10.87;47.49;102232.63;7357526;19;20014;-64
2022/03/20 01:46:04;;;;;;;0.00;0.00;;;;;;;10.86;47.54;102236.13;7357930;19;20006;-64
2022/03/20 01:48:30;;;;;;;0.00;0.00;;;;;;;10.84;47.52;102222.16;7345005;19;20818;-64
2022/03/20 01:50:55;;;;;;;0.00;0.00;;;;;;;10.69;47.20;102202.13;7356480;19;20116;-64
2022/03/20 01:53:21;;;;;;;0.00;0.00;;;;;;;10.69;47.29;102189.06;7357166;19;20027;-63
2022/03/20 01:55:47;;;;;;;0.00;0.00;;;;;;;10.81;47.27;102217.81;7357601;19;20018;-64
2022/03/20 01:58:15;;;;;;;0.00;0.00;;;;;;;10.75;47.14;102201.28;7359142;19;20010;-64
2022/03/20 02:00:40;;;;;;;0.00;0.00;;;;;;;10.76;47.23;102203.88;7353085;19;20019;-64
2022/03/20 02:03:06;;;;;;;0.10;0.10;;;;;;;10.75;47.32;102209.97;7352121;19;20040;-64
2022/03/20 02:05:31;;;;;;;0.10;0.10;;;;;;;10.74;47.49;102207.34;7358890;19;20073;-64
2022/03/20 02:07:57;;;;;;;0.00;0.00;;;;;;;10.72;47.64;102207.34;7360702;19;20647;-64
2022/03/20 02:10:23;;;;;;;0.00;0.00;;;;;;;10.71;47.45;102216.06;7359787;19;20017;-64
2022/03/20 02:12:48;;;;;;;0.00;0.00;;;;;;;10.62;47.36;102198.63;7359542;19;20463;-63
2022/03/20 02:15:15;;;;;;;0.00;0.00;;;;;;;10.68;47.44;102204.72;7362427;19;20020;-64
2022/03/20 02:17:42;;;;;;;0.00;0.00;;;;;;;10.68;47.69;102204.72;7356104;19;20097;-64
2022/03/20 02:20:13;;;;;;;0.00;0.00;;;;;;;10.61;46.99;102204.72;3572780;19;10023599;-64
2022/03/20 02:22:40;;;;;;;0.10;0.10;;;;;;;10.63;47.62;102200.38;5117452;19;10001309;-64
2022/03/20 02:25:08;;;;;;;0.00;0.00;;;;;;;10.56;47.97;102182.97;7359937;19;20767;-64
2022/03/20 02:27:34;;;;;;;0.00;0.00;;;;;;;10.62;47.60;102193.41;7360099;19;20010;-64
2022/03/20 02:30:02;;;;;;;0.00;0.00;;;;;;;10.59;47.99;102182.97;7356671;19;20025;-64
2022/03/20 02:32:32;;;;;;;0.00;0.00;;;;;;;10.59;47.48;102193.41;7350807;19;20098;-64
2022/03/20 02:35:01;;;;;;;0.00;0.00;;;;;;;10.56;47.90;102185.56;7357775;19;20582;-63
2022/03/20 02:37:28;;;;;;;0.00;0.00;;;;;;;10.54;47.90;102191.66;7359124;19;20018;-64
2022/03/20 02:39:56;;;;;;;0.00;0.00;;;;;;;10.51;48.25;102181.22;7359346;19;20018;-64
2022/03/20 02:42:22;;;;;;;;;;;;;;;10.47;46.81;102182.06;7361195;19;20070;-63
2022/03/20 02:44:49;;;;;;;0.00;0.00;;;;;;;10.48;48.63;102192.50;7353888;19;20264;-63
2022/03/20 02:47:23;;;;;;;0.00;0.00;;;;;;;10.45;48.01;102182.09;7362494;19;20011;-64
2022/03/20 02:50:10;;;;;;;0.00;0.00;;;;;;;10.43;48.60;102173.34;7355660;19;20010;-64
2022/03/20 02:52:39;;;;;;;0.00;0.00;;;;;;;10.40;48.64;102168.16;7361127;19;20697;-64
2022/03/20 02:55:05;;;;;;;0.00;0.00;;;;;;;10.38;48.62;102175.09;7355506;19;20779;-64
2022/03/20 02:57:31;;;;;;;0.05;0.05;;;;;;;10.37;48.05;102173.34;7353189;19;20089;-64
2022/03/20 03:00:03;;;;;;;0.00;0.00;;;;;;;10.35;48.64;102168.13;7348330;19;20119;-64
2022/03/20 03:02:33;;;;;;;0.00;0.00;;;;;;;10.33;48.75;102171.59;7352347;19;20407;-63
2022/03/20 03:04:59;;;;;;;0.00;0.00;;;;;;;10.31;48.53;102162.91;7343838;19;20046;-64
2022/03/20 03:10:55;;;;;;;0.00;0.00;;;;;;;10.31;48.41;102160.28;7350435;19;20011;-64
2022/03/20 03:13:09;;;;;;;0.00;0.00;;;;;;;10.26;48.60;102154.19;7256145;19;2004640;-64
2022/03/20 03:15:35;;;;;;;0.00;0.00;;;;;;;10.24;48.70;102155.91;7356820;19;20402;-64
2022/03/20 03:18:01;;;;;;;0.00;0.00;;;;;;;10.21;48.82;102150.66;7350995;19;20018;-64
2022/03/20 03:20:27;;;;;;;0.00;0.00;;;;;;;10.19;48.71;102160.22;7351596;19;20010;-64
2022/03/20 03:22:52;;;;;;;0.10;0.10;;;;;;;10.17;48.71;102155.00;7358539;19;20074;-64
2022/03/20 03:25:18;;;;;;;0.00;0.00;;;;;;;10.13;49.23;102146.28;7353164;19;20479;-64
2022/03/20 03:27:43;;;;;;;0.00;0.00;;;;;;;10.14;49.55;102142.81;7352815;19;20017;-64
2022/03/20 03:30:10;;;;;;;0.00;0.00;;;;;;;10.12;49.51;102133.22;7352046;19;20425;-64
2022/03/20 03:32:35;;;;;;;0.00;0.00;;;;;;;10.10;49.76;102133.25;7355441;19;20010;-63
2022/03/20 03:37:45;;;;;;;0.00;0.00;;;;;;;10.05;49.85;102128.88;7353734;19;20027;-64
2022/03/20 03:40:11;;;;;;;0.00;0.00;;;;;;;10.06;49.69;102139.31;7361289;19;20019;-64
2022/03/20 03:42:36;;;;;;;0.00;0.00;;;;;;;10.04;50.26;102138.44;7358041;19;19990;-64
2022/03/20 03:45:06;;;;;;;0.00;0.00;;;;;;;9.99;49.72;102128.88;7359750;19;20026;-63
2022/03/20 03:47:32;;;;;;;0.00;0.00;;;;;;;9.98;49.96;102127.97;7362051;19;20103;-64
2022/03/20 03:49:58;;;;;;;0.00;0.00;;;;;;;10.00;50.69;102130.59;7353070;19;20410;-64
2022/03/20 03:52:23;;;;;;;0.00;0.00;;;;;;;9.98;50.66;102116.66;7365650;19;20049;-64
2022/03/20 03:54:49;;;;;;;0.00;0.00;;;;;;;9.98;50.68;102121.88;7349218;19;20752;-64
2022/03/20 03:57:14;;;;;;;0.00;0.00;;;;;;;9.92;50.15;102106.22;7362875;19;20007;-65
2022/03/20 03:59:40;;;;;;;0.00;0.00;;;;;;;9.96;50.32;102114.06;7362633;19;20574;-64
2022/03/20 04:02:05;;;;;;;0.00;0.00;;;;;;;9.83;50.53;102101.84;7355721;19;20002;-64
2022/03/20 04:04:31;;;;;;;0.00;0.00;;;;;;;9.92;50.83;102120.13;7349846;19;20021;-64
2022/03/20 04:06:57;;;;;;;0.00;0.00;;;;;;;9.85;50.72;102115.78;7353680;19;20011;-64
2022/03/20 04:09:24;;;;;;;0.00;0.00;;;;;;;9.84;51.14;102111.44;7363344;19;20017;-64
2022/03/20 04:11:49;;;;;;;0.00;0.00;;;;;;;9.88;51.09;102127.09;7364728;19;20014;-64
2022/03/20 04:14:30;;;;;;;0.00;0.00;;;;;;;9.88;50.26;102127.09;5833535;19;10005922;-64
2022/03/20 04:16:56;;;;;;;0.00;0.00;;;;;;;9.86;51.35;102130.56;3146703;19;10001963;-64
2022/03/20 04:19:21;;;;;;;0.00;0.00;;;;;;;9.83;51.47;102125.31;7357869;19;20704;-64
2022/03/20 04:21:48;;;;;;;0.00;0.00;;;;;;;9.81;51.82;102130.53;7364473;19;20026;-64
2022/03/20 04:24:14;;;;;;;0.00;0.00;;;;;;;9.80;51.29;102130.53;7362750;19;20018;-64
2022/03/20 04:26:40;;;;;;;0.00;0.00;;;;;;;9.78;51.30;102127.03;7365266;19;20744;-63
2022/03/20 04:29:05;;;;;;;0.00;0.00;;;;;;;9.66;51.67;102103.53;7366766;19;20031;-64
2022/03/20 04:31:31;;;;;;;0.00;0.00;;;;;;;9.73;51.55;102115.72;7364012;19;20010;-64
2022/03/20 04:33:57;;;;;;;0.00;0.00;;;;;;;9.67;51.72;102110.50;7363683;19;20018;-64
2022/03/20 04:36:25;;;;;;;0.00;0.00;;;;;;;9.67;52.32;102110.50;7365099;19;20010;-64
2022/03/20 04:38:52;;;;;;;0.00;0.00;;;;;;;9.63;52.51;102109.63;7364616;19;20026;-64
2022/03/20 04:41:18;;;;;;;0.00;0.00;;;;;;;9.60;51.98;102105.25;7362067;19;20494;-64
2022/03/20 04:43:49;;;;;;;0.00;0.00;;;;;;;9.59;52.17;102108.75;7363760;19;20022;-64
2022/03/20 04:46:16;;;;;;;0.10;0.10;;;;;;;9.56;52.41;102093.06;7361995;19;20010;-64
2022/03/20 04:59:38;;;;;;;0.00;0.00;;;;;;;9.41;51.88;102102.56;7365309;19;20106;-63
2022/03/20 05:02:04;;;;;;;0.00;0.00;;;;;;;9.38;52.58;102093.00;7364278;19;20094;-64
2022/03/20 05:04:29;;;;;;;0.00;0.00;;;;;;;9.34;52.94;102096.47;7361429;19;20607;-64
2022/03/20 05:06:55;;;;;;;0.00;0.00;;;;;;;9.32;53.13;102087.75;7354949;19;20010;-64
2022/03/20 05:14:48;;;;;;;0.00;0.00;;;;;;;9.15;53.34;102073.78;7365496;19;20013;-64
2022/03/20 05:17:14;;;;;;;0.00;0.00;;;;;;;9.24;53.19;102081.63;7352753;19;20014;-64
2022/03/20 05:19:40;;;;;;;0.08;0.08;;;;;;;9.22;53.53;102085.94;7350787;19;20015;-64
2022/03/20 05:22:10;;;;;;;0.10;0.10;;;;;;;9.22;53.27;102091.16;7365991;19;20757;-64
2022/03/20 05:24:38;;;;;;;0.00;0.00;;;;;;;9.20;53.80;102095.50;7362078;19;20006;-64
2022/03/20 05:27:05;;;;;;;0.00;0.00;;;;;;;9.14;53.81;102092.88;7361875;19;20030;-64
2022/03/20 05:29:32;;;;;;;0.00;0.00;;;;;;;9.18;53.89;102107.69;7363346;19;20010;-64
2022/03/20 05:32:00;;;;;;;0.00;0.00;;;;;;;9.12;53.72;102105.00;7360080;19;20023;-64
2022/03/20 05:34:26;;;;;;;0.08;0.08;;;;;;;9.10;53.80;102103.28;7360243;19;20054;-64
2022/03/20 05:36:51;;;;;;;0.00;0.00;;;;;;;9.13;53.44;102101.56;7361223;19;20011;-64
2022/03/20 05:39:17;;;;;;;0.00;0.00;;;;;;;9.10;53.52;102097.19;7358429;19;20031;-64
2022/03/20 05:41:49;;;;;;;0.00;0.00;;;;;;;9.08;53.57;102091.97;7356085;19;20010;-64
2022/03/20 05:44:19;;;;;;;0.00;0.00;;;;;;;9.06;53.88;102100.63;7366253;19;20101;-64
2022/03/20 05:46:51;;;;;;;0.00;0.00;;;;;;;9.03;53.73;102108.47;7355067;19;20490;-63
2022/03/20 05:49:20;;;;;;;0.00;0.00;;;;;;;8.99;54.08;102115.38;7361492;19;20007;-64
2022/03/20 05:51:49;;;;;;;0.00;0.00;;;;;;;8.96;53.71;102104.06;7364570;19;20018;-64
2022/03/20 05:54:15;;;;;;;0.00;0.00;;;;;;;8.95;53.92;102100.56;7357219;19;20081;-64
2022/03/20 05:59:25;;;;;;;0.10;0.10;;;;;;;8.86;54.47;102103.13;7359057;19;20022;-64
2022/03/20 06:01:51;;;;;;;0.00;0.00;;;;;;;8.88;54.01;102111.84;7360245;19;20010;-64
2022/03/20 06:04:27;;;;;;;0.00;0.00;;;;;;;8.88;52.70;102111.84;6105523;19;10001180;-64
2022/03/20 06:06:52;;;;;;;0.00;0.00;;;;;;;8.85;54.20;102117.00;2739361;19;10001992;-64
2022/03/20 06:09:18;;;;;;;0.00;0.00;;;;;;;8.82;54.29;102111.78;7358367;19;20070;-64
2022/03/20 06:11:43;;;;;;;0.00;0.00;;;;;;;8.81;53.85;102117.84;7356964;19;20018;-64
2022/03/20 06:14:09;;;;;;;0.00;0.00;;;;;;;8.79;53.91;102109.16;7361296;19;20010;-64
2022/03/20 06:16:35;;;;;;;0.00;0.00;;;;;;;8.79;54.21;102109.16;7360521;19;20012;-64
2022/03/20 06:19:01;;;;;;;0.00;0.00;;;;;;;8.78;53.94;102102.22;7363760;19;20013;-65
2022/03/20 06:21:27;;;;;;;0.00;0.00;;;;;;;8.72;53.93;102094.34;7356685;19;21693;-64
2022/03/20 06:23:54;;;;;;;0.00;0.00;;;;;;;8.59;54.35;102077.75;7362905;19;20487;-64
2022/03/20 06:26:20;;;;;;;0.00;0.00;;;;;;;8.74;54.55;102108.25;7360707;19;20022;-63
2022/03/20 06:28:48;;;;;;;0.00;0.00;;;;;;;8.74;54.77;102109.13;7361963;19;20014;-64
2022/03/20 06:31:19;;;;;;;0.00;0.00;;;;;;;8.73;53.96;102107.38;7361453;19;20021;-64
2022/03/20 06:33:44;;;;;;;0.00;0.00;;;;;;;8.55;54.08;102076.84;7362050;19;20385;-64
2022/03/20 06:36:10;;;;;;;0.00;0.00;;;;;;;8.73;54.68;102106.50;7362815;19;20018;-64
2022/03/20 06:38:36;;;;;;;0.00;0.00;;;;;;;8.72;54.74;102120.41;7358721;19;20035;-64
2022/03/20 06:41:03;;;;;;;0.00;0.00;;;;;;;8.65;54.86;102108.16;7363985;19;20006;-64
2022/03/20 06:43:28;;;;;;;0.00;0.00;;;;;;;8.71;54.74;102127.31;7361648;19;20014;-64
2022/03/20 06:45:54;;;;;;;0.00;0.00;;;;;;;8.69;55.04;102125.56;7361328;19;20495;-64
2022/03/20 06:48:20;;;;;;;0.00;0.00;;;;;;;8.72;54.93;102123.88;7351080;19;20015;-64
2022/03/20 06:50:45;;;;;;;0.00;0.00;;;;;;;8.73;54.83;102127.34;7363321;19;20020;-64
2022/03/20 06:53:11;;;;;;;0.00;0.00;;;;;;;8.69;55.18;102129.03;7362626;19;20077;-64
2022/03/20 06:55:38;;;;;;;0.00;0.00;;;;;;;8.69;55.52;102120.38;7353735;19;20836;-64
2022/03/20 06:58:03;;;;;;;0.00;0.00;;;;;;;8.75;54.64;102133.44;7362047;19;20018;-64
2022/03/20 07:00:29;;;;;;;0.00;0.00;;;;;;;8.76;54.79;102119.53;7361267;19;20774;-64
2022/03/20 07:02:56;;;;;;;0.00;0.00;;;;;;;8.77;54.64;102118.69;7356556;19;20010;-64
2022/03/20 07:05:22;;;;;;;0.00;0.00;;;;;;;8.77;54.52;102110.88;7358883;19;20522;-64
2022/03/20 07:07:50;;;;;;;0.00;0.00;;;;;;;8.78;55.04;102110.03;7359031;19;20014;-64
2022/03/20 07:10:15;;;;;;;0.00;0.00;;;;;;;8.80;55.11;102118.69;7360393;19;20010;-64
2022/03/20 07:12:41;;;;;;;0.00;0.00;;;;;;;8.80;54.91;102118.69;7350623;19;20013;-64
2022/03/20 07:15:07;;;;;;;0.10;0.10;;;;;;;8.84;54.72;102121.34;7360045;19;20002;-64
2022/03/20 07:17:36;;;;;;;0.00;0.00;;;;;;;8.88;54.78;102122.25;7357879;19;20707;-64
2022/03/20 07:20:03;;;;;;;0.10;0.10;;;;;;;8.90;55.14;102130.94;7357503;19;20031;-64
2022/03/20 07:22:28;;;;;;;0.00;0.00;;;;;;;8.90;55.33;102130.94;7356007;19;20365;-64
2022/03/20 07:24:54;;;;;;;0.00;0.00;;;;;;;8.95;54.94;102134.44;7359643;19;20011;-64
2022/03/20 07:30:06;;;;;;;0.00;0.00;;;;;;;8.97;55.32;102117.09;7353715;19;20016;-64
2022/03/20 07:32:31;;;;;;;0.00;0.00;;;;;;;8.94;55.61;102101.44;7360628;19;20010;-65
2022/03/20 07:34:56;;;;;;;0.00;0.00;;;;;;;9.05;55.58;102120.63;7356608;19;20013;-64
2022/03/20 07:37:22;;;;;;;0.00;0.00;;;;;;;9.08;55.11;102109.34;7355605;19;20031;-64
2022/03/20 07:39:49;;;;;;;0.00;0.00;;;;;;;9.17;55.18;102111.13;7354251;19;20006;-64
2022/03/20 07:42:16;;;;;;;0.00;0.00;;;;;;;9.21;54.89;102110.28;7344845;19;20006;-64
2022/03/20 07:44:45;;;;;;;0.00;0.00;;;;;;;9.25;55.09;102106.84;7359913;19;20010;-64
2022/03/20 07:47:22;;;;;;;0.05;0.05;;;;;;;9.31;54.83;102112.06;7348013;19;20010;-64
2022/03/20 07:49:48;;;;;;;0.00;0.00;;;;;;;9.21;54.30;102090.28;7358460;19;20492;-64
2022/03/20 07:52:14;;;;;;;0.00;0.00;;;;;;;9.39;54.81;102089.53;7355733;19;20026;-64
2022/03/20 07:54:40;;;;;;;0.10;0.10;;;;;;;9.43;54.34;102088.69;7359233;19;20018;-64
2022/03/20 07:57:07;;;;;;;0.10;0.10;;;;;;;9.49;55.82;102090.44;7301319;19;20090;-64
2022/03/20 07:59:32;;;;;;;0.00;0.00;;;;;;;9.54;55.17;102099.16;1123799;19;10002003;-64
2022/03/20 08:01:58;;;;;;;0.00;0.00;;;;;;;9.57;55.29;102094.81;7358212;19;20042;-64
2022/03/20 08:04:24;;;;;;;0.00;0.00;;;;;;;9.64;54.98;102084.41;7352001;19;20070;-64
2022/03/20 08:06:50;;;;;;;0.00;0.00;;;;;;;9.70;55.07;102098.34;7356714;19;20011;-64
2022/03/20 08:09:16;;;;;;;0.05;0.05;;;;;;;9.78;54.49;102098.34;7348427;19;20027;-64
2022/03/20 08:11:42;;;;;;;0.00;0.00;;;;;;;9.71;54.48;102074.00;7359223;19;20014;-64
2022/03/20 08:14:08;;;;;;;0.00;0.00;;;;;;;9.84;54.82;102090.56;7352226;19;20043;-64
2022/03/20 08:16:38;;;;;;;0.00;0.00;;;;;;;10.07;54.63;102101.91;7356887;19;20027;-64
2022/03/20 08:19:05;;;;;;;0.00;0.00;;;;;;;10.16;54.40;102090.63;7356991;19;20011;-64
2022/03/20 08:21:33;;;;;;;0.00;0.00;;;;;;;10.30;53.73;102098.50;7359617;19;20273;-64
2022/03/20 08:23:59;;;;;;;0.00;0.00;;;;;;;10.28;54.02;102066.28;7364126;19;20415;-64
2022/03/20 08:26:25;;;;;;;0.00;0.00;;;;;;;10.52;53.94;102095.00;7355260;19;20015;-64
2022/03/20 08:28:50;;;;;;;0.00;0.00;;;;;;;10.69;53.25;102096.75;7363504;19;20348;-64
2022/03/20 08:31:15;;;;;;;0.08;0.08;;;;;;;10.76;53.15;102074.97;7364671;19;20011;-64
2022/03/20 08:33:41;;;;;;;0.00;0.00;;;;;;;10.95;52.88;102084.53;7356316;19;20051;-64
2022/03/20 08:36:07;;;;;;;0.00;0.00;;;;;;;11.00;52.92;102081.88;7354334;19;20010;-64
2022/03/20 08:38:33;;;;;;;0.00;0.00;;;;;;;11.23;52.10;102089.69;7358959;19;20025;-64
2022/03/20 08:41:00;;;;;;;0.00;0.00;;;;;;;11.31;52.20;102080.06;7362059;19;20706;-64
2022/03/20 08:43:25;;;;;;;0.00;0.00;;;;;;;11.52;51.48;102095.66;7357994;19;20006;-65
2022/03/20 08:45:51;;;;;;;0.00;0.00;;;;;;;11.64;51.09;102098.22;7358796;19;20011;-65
2022/03/20 08:48:18;;;;;;;0.00;0.00;;;;;;;11.76;50.76;102096.41;7357524;19;20027;-64
2022/03/20 08:50:48;;;;;;;0.00;0.00;;;;;;;11.94;50.91;102109.44;7344835;19;20031;-65
2022/03/20 08:53:20;;;;;;;0.00;0.00;;;;;;;12.05;50.90;102094.53;7356115;19;20019;-65
2022/03/20 08:55:47;;;;;;;0.00;0.00;;;;;;;12.18;50.55;102105.81;7351870;19;20010;-64
2022/03/20 08:58:13;;;;;;;0.00;0.00;;;;;;;12.29;50.37;102093.50;7356830;19;20479;-65
2022/03/20 09:00:39;;;;;;;0.00;0.00;;;;;;;12.32;49.87;102079.53;7356593;19;20018;-64
2022/03/20 09:03:05;;;;;;;0.00;0.00;;;;;;;12.51;49.95;102099.44;7359353;19;20011;-64
2022/03/20 09:05:30;;;;;;;0.00;0.00;;;;;;;12.62;49.60;102087.13;7358523;19;20026;-64
2022/03/20 09:07:57;;;;;;;0.05;0.05;;;;;;;12.77;49.20;102100.94;7358552;19;20018;-64
2022/03/20 09:10:24;;;;;;;0.00;0.00;;;;;;;12.90;49.02;102086.84;7356837;19;20014;-64
2022/03/20 09:12:50;;;;;;;0.00;0.00;;;;;;;13.00;49.32;102085.88;7360447;19;20018;-64
2022/03/20 09:15:17;;;;;;;0.00;0.00;;;;;;;13.10;49.12;102084.88;7356067;19;20010;-64
2022/03/20 09:20:28;;;;;;;0.00;0.00;;;;;;;13.44;48.07;102093.28;7360527;19;20031;-64
2022/03/20 09:22:54;;;;;;;0.00;0.00;;;;;;;13.52;47.39;102093.16;7342772;19;20078;-64
2022/03/20 09:25:20;;;;;;;0.10;0.10;;;;;;;13.55;47.45;102084.41;7359618;19;20544;-64
2022/03/20 09:27:48;;;;;;;0.00;0.00;;;;;;;13.44;47.31;102072.28;7358969;19;20805;-64
2022/03/20 09:30:17;;;;;;;0.00;0.00;;;;;;;13.51;47.52;102075.69;7346099;19;20011;-64
2022/03/20 09:32:43;;;;;;;0.00;0.00;;;;;;;13.59;47.55;102083.47;7352053;19;20027;-64
2022/03/20 09:35:09;;;;;;;0.00;0.00;;;;;;;13.66;47.22;102078.09;7352129;19;21350;-64
2022/03/20 09:37:35;;;;;;;0.00;0.00;;;;;;;13.75;47.28;102074.50;7362057;19;20073;-64
2022/03/20 09:40:02;;;;;;;0.00;0.00;;;;;;;13.86;47.65;102090.97;7358679;19;20700;-64
2022/03/20 09:42:27;;;;;;;0.10;0.10;;;;;;;14.00;46.47;102080.28;7349018;19;20021;-64
2022/03/20 09:44:53;;;;;;;0.08;0.08;;;;;;;14.18;46.45;102084.34;7355548;19;20014;-64
2022/03/20 09:47:19;;;;;;;0.00;0.00;;;;;;;14.35;45.57;102076.22;7348716;19;20120;-64
2022/03/20 09:49:48;;;;;;;0.00;0.00;;;;;;;14.52;45.11;102068.94;7367124;19;20027;-65
2022/03/20 09:52:14;;;;;;;0.00;0.00;;;;;;;14.61;44.39;102068.78;7363907;19;20014;-65
2022/03/20 09:54:40;;;;;;;0.00;0.00;;;;;;;14.48;44.40;102040.97;7351057;19;20844;-67
2022/03/20 09:57:15;;;;;;;0.00;0.00;;;;;;;14.67;44.91;102060.78;5605092;19;10020700;-66
2022/03/20 09:59:41;;;;;;;0.00;0.00;;;;;;;14.76;44.94;102050.13;3245521;19;10002034;-67
2022/03/20 10:02:11;;;;;;;0.00;0.00;;;;;;;14.94;44.29;102066.44;7351417;19;20376;-65
2022/03/20 10:04:55;;;;;;;0.00;0.00;;;;;;;15.13;44.83;102057.28;7353574;19;20039;-66
2022/03/20 10:07:25;;;;;;;0.00;0.00;;;;;;;15.25;43.72;102046.50;7350534;19;20042;-66
2022/03/20 10:10:22;;;;;;;0.00;0.00;;;;;;;15.47;43.89;102051.34;7354978;19;20014;-68
2022/03/20 10:12:53;;;;;;;0.00;0.00;;;;;;;15.53;42.64;102035.41;7251121;19;2004375;-66
2022/03/20 10:15:28;;;;;;;0.00;0.00;;;;;;;15.60;42.28;102026.47;7354888;19;20015;-63
2022/03/20 10:18:14;;;;;;;0.00;0.00;;;;;;;15.63;43.00;102044.88;7350734;19;20033;-64
2022/03/20 10:21:01;;;;;;;0.05;0.05;;;;;;;15.65;42.87;102018.50;7353858;19;20011;-65
2022/03/20 10:23:36;;;;;;;0.00;0.00;;;;;;;15.73;42.70;102054.28;7356425;19;20035;-66
2022/03/20 10:26:18;;;;;;;0.00;0.00;;;;;;;15.82;43.22;102048.81;7352518;19;20050;-67
2022/03/20 10:28:49;;;;;;;0.00;0.00;;;;;;;15.88;42.64;102036.41;7349914;19;20032;-67
2022/03/20 10:31:20;;;;;;;0.00;0.00;;;;;;;15.96;42.28;102044.97;7354985;19;20019;-65
2022/03/20 10:34:09;;;;;;;0.00;0.00;;;;;;;16.20;43.29;102044.38;7351272;19;20010;-65
2022/03/20 10:36:36;;;;;;;0.00;0.00;;;;;;;16.27;42.24;102045.09;7354622;19;20021;-64
2022/03/20 10:39:08;;;;;;;0.00;0.00;;;;;;;16.37;41.83;102041.31;7359854;19;20010;-66
2022/03/20 10:41:34;;;;;;;0.08;0.08;;;;;;;16.48;41.82;102049.00;7349059;19;20014;-64
2022/03/20 10:44:01;;;;;;;0.08;0.08;;;;;;;16.64;41.00;102042.41;7344928;19;20063;-65
2022/03/20 10:46:32;;;;;;;0.00;0.00;;;;;;;16.70;41.55;102017.63;7355673;19;21017;-66
2022/03/20 10:49:03;;;;;;;0.00;0.00;;;;;;;17.00;40.30;102032.66;7358745;19;20050;-66
2022/03/20 10:51:38;;;;;;;0.00;0.00;;;;;;;17.15;40.78;102025.19;7337664;19;20002;-67
2022/03/20 10:54:07;;;;;;;0.00;0.00;;;;;;;17.21;39.28;102023.25;7344307;19;20010;-65
2022/03/20 10:56:32;;;;;;;0.00;0.00;;;;;;;17.28;39.31;102037.97;7354672;19;20010;-66
2022/03/20 10:58:58;;;;;;;0.00;0.00;;;;;;;17.43;39.45;102038.44;7354519;19;20020;-65
2022/03/20 11:01:37;;;;;;;0.00;0.00;;;;;;;17.62;40.66;102023.78;7356894;19;20770;-66
2022/03/20 11:04:08;;;;;;;0.00;0.00;;;;;;;17.73;39.71;102026.97;7339192;19;20074;-65
2022/03/20 11:06:34;;;;;;;0.00;0.00;;;;;;;17.91;39.27;102012.31;7355332;19;20039;-64
2022/03/20 11:09:04;;;;;;;0.00;0.00;;;;;;;18.06;38.70;102011.81;7353469;19;20006;-65
2022/03/20 11:11:32;;;;;;;0.00;0.00;;;;;;;18.26;37.81;102029.66;7355569;19;20097;-66
2022/03/20 11:13:59;;;;;;;0.10;0.10;;;;;;;18.45;36.97;102024.63;7356264;19;20053;-66
2022/03/20 11:16:26;;;;;;;0.00;0.00;;;;;;;18.62;37.33;102002.88;7349142;19;20039;-68
2022/03/20 11:18:54;;;;;;;0.00;0.00;;;;;;;18.63;37.02;102009.88;7352665;19;20019;-67
2022/03/20 11:21:23;;;;;;;0.10;0.10;;;;;;;18.52;37.05;101972.34;7361288;19;20022;-67
2022/03/20 11:23:51;;;;;;;0.00;0.00;;;;;;;18.63;36.98;101994.84;7364493;19;20062;-67
2022/03/20 11:26:24;;;;;;;0.00;0.00;;;;;;;18.61;36.75;101988.78;7359960;19;20105;-64
2022/03/20 11:28:57;;;;;;;0.00;0.00;;;;;;;18.60;36.84;101986.16;7362912;19;20014;-64
2022/03/20 11:31:23;;;;;;;0.00;0.00;;;;;;;18.49;37.06;101977.75;7354194;19;20013;-65
2022/03/20 11:33:50;;;;;;;0.10;0.10;;;;;;;18.58;36.70;101969.50;7349801;19;20094;-64
2022/03/20 11:36:15;;;;;;;0.00;0.00;;;;;;;18.67;36.64;101972.66;7351890;19;20007;-67
2022/03/20 11:38:41;;;;;;;0.00;0.00;;;;;;;18.70;36.37;101971.72;7341399;19;20394;-68
2022/03/20 11:41:25;;;;;;;0.05;0.05;;;;;;;18.78;36.33;101980.25;7351161;19;20038;-65
2022/03/20 11:44:14;;;;;;;0.00;0.00;;;;;;;18.86;37.25;101964.97;7356078;19;20882;-63
2022/03/20 11:46:43;;;;;;;0.10;0.10;;;;;;;18.68;36.89;101947.09;7348416;19;20015;-65
2022/03/20 11:49:17;;;;;;;0.00;0.00;;;;;;;18.85;37.38;101949.97;7350302;19;20010;-66
2022/03/20 11:51:55;;;;;;;0.00;0.00;;;;;;;19.02;37.16;101964.38;7352503;19;20065;-65
2022/03/20 11:54:27;;;;;;;0.10;0.10;;;;;;;18.91;36.33;101949.78;7356073;19;20039;-65
2022/03/20 11:56:54;;;;;;;0.00;0.00;;;;;;;18.99;36.02;101961.84;7355550;19;20792;-64
2022/03/20 11:59:48;;;;;;;0.00;0.00;;;;;;;19.16;37.15;101980.63;7369731;19;20010;-65